Murphy, Idaho
Current Conditions -  °F | °C
As of 1:35 AM on Friday 19 Dec 2014 (Local Time) from KMAN Reporting Station
Broken Clouds Broken Clouds  
Wind Chill: 34°   Ceiling: 6000
Heat Index: 39°   Visibility: 10mi
Dew Point: 37°   Wind: 7mph
Humidity: 93%   Direction: 160°SSE
Pressure: 30.07"   Gusts: NA
Location:  43.22°N, 116.55°W
Report Text: KMAN 190835Z AUTO 16006KT 10SM FEW043 SCT050 BKN060 04/03 A3007 RMK AO1
Loading
Personal Weather Stations






























Interactive Weather Map New forecast layout! Learn more

10-Day Weather Forecast

Advertisements
Track Severe Weather on mobile